Alliance, NE

3:40 PM MDT on July 24, 2014 (GMT -0600)
Heilig (KBFF) Elev 3957 ft | 41.87 °N, 103.60 °W | Change Station
Active Advisory: Special Statement

Current weather conditions updated 47 minutes ago

Clear
Clear
99 °F
Feels Like 99 °F
N
7
Wind Variable Wind from WNW

Today is forecast to be Much Warmer than yesterday.

Today
High -- | Low -- °F
--% Chance of Precip.
Yesterday
High -- | Low -- °F
Precip. -- in
5:36 AM 8:18 PM
Waning Crescent, 4% visible
Pressure 29.70 in
Visibility 10.0 miles
Clouds Clear
Dew Point 50 °F
Humidity 19%
Rainfall 0.00 in
Snow Depth Not available.
UV 10 out of 12
Pollen 7.00 out of 12
Air Quality Not available.
Flu Activity Not available.
METAR KBFF 242053Z AUTO 30006KT 10SM CLR 37/10 A2988 RMK AO2 SLP057 T03720100 56023

More Conditions Fewer Conditions

Pressure 29.70 in
Visibility 10.0 miles
Clouds Clear
Dew Point 50 °F
Humidity 19%
Rainfall 0.00 in
Snow Depth Not available.
UV 10 out of 12
Pollen 7.00 out of 12
Air Quality Not available.
Flu Activity Not available.
METAR KBFF 242053Z AUTO 30006KT 10SM CLR 37/10 A2988 RMK AO2 SLP057 T03720100 56023

More Conditions Fewer Conditions

Nowcast | as of 3:19 PM MDT on July 24, 2014

Through late afternoon...scattered showers and thunderstorms will continue to develop and move to the east over east central and southeast Wyoming and the western Nebraska Panhandle. The stronger thunderstorms will be capable of producing small hail...wind gusts to 40 mph...and brief heavy rain.

×

10-Day Weather Forecast

Almanac

Astronomy

Jul. 24, 2014 Rise Set
Actual Time 5:36 AM MDT 8:18 PM MDT
Civil Twilight 5:04 AM MDT 8:51 PM MDT
Nautical Twilight 4:23 AM MDT 9:31 PM MDT
Astronomical Twilight 3:36 AM MDT 10:18 PM MDT
Moon 3:47 AM MDT 6:34 PM MDT
Length of Visible Light 15h 46m
Length of Day
14h 41m
Tomorrow will be 1m 54s shorter.
Waning Crescent, 4% of the Moon is Illuminated
Today
Waning Crescent
Jul 26
New
Aug 3
First Quarter
Aug 10
Full
Aug 17
Last Quarter

Today's Extremes

State Highs State Lows

Community

WunderPhotos

Upload Photos

1,737,139 photos uploaded!

WunderBlogs® & News

Nearby

Snow Depth

Station Depth Elevation
No new snow has been reported.

Earthquake Activity

City Distance Mag. Time & Date
No recent earthquake activity has been reported nearby.
Minimum magnitude displayed is 2.5.

Coastal Water Temperatures

Place Temperature
No Stations Reporting

Nearby Weather Stations

Station Location Temp. Heat Index Dew Point Humidity Wind Precip. Elev Updated Type
Panhandle Coop/Box Butte Co, Alliance, NE 102.8 °F 100 °F 50 °F 17% South  at  14.0 mph 0.00 in / hr 4140 ft 3:28 PM MDT Normal
Wayne Rd., Alliance, NE 102.2 °F 98 °F 45 °F 14% West  at  10.0 mph 0.00 in / hr 4091 ft 3:28 PM MDT Normal

Show More Stations Show Fewer Stations